createdAt,value
2018-12-01T00:00:24.182Z,100280.91
2018-12-01T00:05:21.690Z,100283.12
2018-12-01T00:10:19.145Z,100282.72
2018-12-01T00:15:18.716Z,100276.22
2018-12-01T00:20:19.037Z,100266.25
2018-12-01T00:25:16.429Z,100271.11
2018-12-01T00:30:16.811Z,100278.09
2018-12-01T00:35:14.269Z,100273.59
2018-12-01T00:40:14.782Z,100272.46
2018-12-01T00:45:13.269Z,100271.45
2018-12-01T00:50:15.725Z,100265.90
2018-12-01T00:55:14.133Z,100270.83
2018-12-01T01:00:23.925Z,100266.88
2018-12-01T01:05:23.155Z,100275.75
2018-12-01T01:10:21.527Z,100279.71
2018-12-01T01:15:18.948Z,100289.07
2018-12-01T01:20:21.368Z,100289.52
2018-12-01T01:25:18.781Z,100291.86
2018-12-01T01:30:18.385Z,100293.64
2018-12-01T01:35:15.883Z,100288.73
2018-12-01T01:40:15.061Z,100289.53
2018-12-01T01:45:14.493Z,100288.05
2018-12-01T01:50:14.095Z,100285.23
2018-12-01T01:55:11.809Z,100290.41
2018-12-01T02:00:18.916Z,100283.88
2018-12-01T02:05:17.193Z,100287.30
2018-12-01T02:10:15.553Z,100281.14
2018-12-01T02:15:13.577Z,100274.92
2018-12-01T02:20:13.925Z,100272.16
2018-12-01T02:25:13.138Z,100271.91
2018-12-01T02:30:15.217Z,100272.39
2018-12-01T02:35:15.893Z,100271.78
2018-12-01T02:40:13.510Z,100268.59
2018-12-01T02:45:22.377Z,100275.61
2018-12-01T02:50:22.770Z,100280.39
2018-12-01T02:55:20.138Z,100283.82
2018-12-01T03:00:17.578Z,100280.60
2018-12-01T03:05:15.030Z,100285.33
2018-12-01T03:10:14.289Z,100281.23
2018-12-01T03:15:12.620Z,100279.27
2018-12-01T03:20:13.298Z,100274.03
2018-12-01T03:25:18.165Z,100275.73
2018-12-01T03:30:19.431Z,100279.95
2018-12-01T03:35:17.217Z,100290.02
2018-12-01T03:40:15.203Z,100284.86
2018-12-01T03:45:13.782Z,100286.41
2018-12-01T03:50:12.260Z,100280.98
2018-12-01T03:55:21.050Z,100286.32
2018-12-01T04:00:24.056Z,100284.36
2018-12-01T04:05:21.492Z,100284.31
2018-12-01T04:10:18.910Z,100282.58
2018-12-01T04:15:16.356Z,100273.81
2018-12-01T04:20:13.777Z,100279.64
2018-12-01T04:25:11.177Z,100281.64
2018-12-01T04:30:14.648Z,100290.84
2018-12-01T04:35:17.994Z,100284.98
2018-12-01T04:40:15.469Z,100297.27
2018-12-01T04:45:12.917Z,100296.44
2018-12-01T04:50:11.662Z,100309.28
2018-12-01T04:55:12.110Z,100316.59
2018-12-01T05:00:12.327Z,100308.50
2018-12-01T05:05:14.952Z,100316.05
2018-12-01T05:10:14.200Z,100315.91
2018-12-01T05:15:18.888Z,100315.63
2018-12-01T05:20:18.340Z,100323.12
2018-12-01T05:25:15.768Z,100316.42
2018-12-01T05:30:14.400Z,100314.51
2018-12-01T05:35:19.630Z,100317.14
2018-12-01T05:40:17.071Z,100309.62
2018-12-01T05:45:15.742Z,100313.14
2018-12-01T05:50:15.097Z,100313.24
2018-12-01T05:55:12.561Z,100314.22
2018-12-01T06:00:14.176Z,100313.90
2018-12-01T06:05:11.822Z,100318.16
2018-12-01T06:10:17.383Z,100321.69
2018-12-01T06:15:15.630Z,100326.07
2018-12-01T06:20:14.467Z,100324.91
2018-12-01T06:25:13.129Z,100330.57
2018-12-01T06:30:16.628Z,100334.24
2018-12-01T06:35:14.148Z,100336.78
2018-12-01T06:40:13.649Z,100340.35
2018-12-01T06:45:12.036Z,100343.07
2018-12-01T06:50:11.661Z,100344.55
2018-12-01T06:55:10.298Z,100339.66
2018-12-01T07:00:13.302Z,100330.05
2018-12-01T07:05:11.714Z,100323.09
2018-12-01T07:10:11.610Z,100320.42
2018-12-01T07:15:12.043Z,100316.39
2018-12-01T07:20:09.773Z,100319.12
2018-12-01T07:25:07.567Z,100328.68
2018-12-01T07:30:11.401Z,100333.39
2018-12-01T07:35:10.220Z,100335.91
2018-12-01T07:40:13.045Z,100330.35
2018-12-01T07:45:11.767Z,100329.56
2018-12-01T07:50:13.333Z,100327.16
2018-12-01T07:55:10.779Z,100322.37
2018-12-01T08:00:12.040Z,100322.22
2018-12-01T08:05:10.391Z,100321.92
2018-12-01T08:10:09.612Z,100321.63
2018-12-01T08:15:09.164Z,100308.42
2018-12-01T08:20:08.507Z,100304.91
2018-12-01T08:25:08.326Z,100309.95
2018-12-01T08:30:15.727Z,100315.29
2018-12-01T08:35:13.211Z,100314.69
2018-12-01T08:40:12.151Z,100313.05
2018-12-01T08:45:10.342Z,100316.06
2018-12-01T08:50:10.051Z,100326.58
2018-12-01T08:55:09.174Z,100324.53
2018-12-01T09:00:16.531Z,100327.89
2018-12-01T09:05:14.036Z,100332.46
2018-12-01T09:10:11.505Z,100323.02
2018-12-01T09:15:10.770Z,100328.27
2018-12-01T09:20:11.212Z,100329.65
2018-12-01T09:25:10.101Z,100325.56
2018-12-01T09:30:12.941Z,100333.53
2018-12-01T09:35:10.444Z,100313.16
2018-12-01T09:40:10.457Z,100329.20
2018-12-01T09:45:10.897Z,100318.50
2018-12-01T09:50:10.409Z,100320.98
2018-12-01T09:55:09.184Z,100310.95
2018-12-01T10:00:10.670Z,100309.30
2018-12-01T10:05:09.686Z,100306.69
2018-12-01T10:10:08.873Z,100308.80
2018-12-01T10:15:08.597Z,100301.77
2018-12-01T10:20:09.044Z,100305.52
2018-12-01T10:25:09.421Z,100303.05
2018-12-01T10:30:15.008Z,100290.06
2018-12-01T10:35:14.545Z,100276.91
2018-12-01T10:40:12.406Z,100269.50
2018-12-01T10:45:15.195Z,100273.86
2018-12-01T10:50:13.551Z,100256.91
2018-12-01T10:55:20.670Z,100251.11
2018-12-01T11:00:24.704Z,100250.05
2018-12-01T11:05:22.213Z,100253.87
2018-12-01T11:10:19.730Z,100261.57
2018-12-01T11:15:17.240Z,100259.62
2018-12-01T11:20:14.690Z,100257.94
2018-12-01T11:25:13.156Z,100242.05
2018-12-01T11:30:15.763Z,100235.87
2018-12-01T11:35:13.338Z,100226.98
2018-12-01T11:40:13.062Z,100238.62
2018-12-01T11:45:11.605Z,100242.45
2018-12-01T11:50:17.083Z,100231.55
2018-12-01T11:55:15.756Z,100228.61
2018-12-01T12:00:15.108Z,100224.86
2018-12-01T12:05:13.700Z,100217.36
2018-12-01T12:10:11.172Z,100228.49
2018-12-01T12:15:09.641Z,100214.25
2018-12-01T12:20:08.830Z,100210.80
2018-12-01T12:25:09.623Z,100201.59
2018-12-01T12:30:11.463Z,100193.59
2018-12-01T12:35:10.222Z,100199.86
2018-12-01T12:40:11.950Z,100199.69
2018-12-01T12:45:10.584Z,100189.06
2018-12-01T12:50:11.997Z,100184.05
2018-12-01T12:55:12.449Z,100179.89
2018-12-01T13:00:15.828Z,100181.64
2018-12-01T13:05:14.831Z,100175.98
2018-12-01T13:10:20.181Z,100173.55
2018-12-01T13:15:17.641Z,100159.09
2018-12-01T13:20:21.143Z,100160.41
2018-12-01T13:25:18.566Z,100152.91
2018-12-01T13:30:18.751Z,100148.25
2018-12-01T13:35:16.315Z,100155.97
2018-12-01T13:40:14.722Z,100142.63
2018-12-01T13:45:14.985Z,100132.41
2018-12-01T13:50:15.488Z,100140.42
2018-12-01T13:55:12.961Z,100149.73
2018-12-01T14:00:13.000Z,100153.19
2018-12-01T14:05:11.218Z,100147.72
2018-12-01T14:10:12.679Z,100140.84
2018-12-01T14:15:13.334Z,100138.48
2018-12-01T14:20:13.773Z,100138.20
2018-12-01T14:25:11.981Z,100131.73
2018-12-01T14:30:11.888Z,100136.79
2018-12-01T14:35:12.568Z,100136.67
2018-12-01T14:40:11.168Z,100127.96
2018-12-01T14:45:10.259Z,100126.53
2018-12-01T14:50:09.118Z,100122.10
2018-12-01T14:55:10.042Z,100117.75
2018-12-01T15:00:14.095Z,100112.77
2018-12-01T15:05:11.658Z,100109.80
2018-12-01T15:10:18.050Z,100098.92
2018-12-01T15:15:17.683Z,100079.64
2018-12-01T15:20:19.209Z,100072.95
2018-12-01T15:25:18.718Z,100080.31
2018-12-01T15:30:23.112Z,100081.81
2018-12-01T15:35:20.828Z,100077.20
2018-12-01T15:40:18.801Z,100073.86
2018-12-01T15:45:17.341Z,100067.87
2018-12-01T15:50:18.804Z,100059.61
2018-12-01T15:55:16.308Z,100057.92
2018-12-01T16:00:16.263Z,100043.45
2018-12-01T16:05:14.731Z,100026.08
2018-12-01T16:10:14.382Z,100020.61
2018-12-01T16:15:15.318Z,100024.16
2018-12-01T16:20:13.890Z,100009.27
2018-12-01T16:25:19.418Z,100005.20
2018-12-01T16:30:20.660Z,99999.70
2018-12-01T16:35:18.241Z,99998.48
2018-12-01T16:40:18.531Z,100004.38
2018-12-01T16:45:16.180Z,99994.61
2018-12-01T16:50:14.710Z,99980.45
2018-12-01T16:55:13.441Z,99984.34
2018-12-01T17:00:16.663Z,99977.99
2018-12-01T17:05:16.303Z,99977.83
2018-12-01T17:10:21.079Z,99977.30
2018-12-01T17:15:20.307Z,99973.17
2018-12-01T17:20:18.531Z,99972.48
2018-12-01T17:25:16.385Z,99968.64
2018-12-01T17:30:17.568Z,99967.02
2018-12-01T17:35:16.336Z,99960.97
2018-12-01T17:40:17.424Z,99959.97
2018-12-01T17:45:14.999Z,99954.20
2018-12-01T17:50:13.652Z,99945.02
2018-12-01T17:55:12.723Z,99949.39
2018-12-01T18:00:20.562Z,99947.84
2018-12-01T18:05:22.762Z,99946.42
2018-12-01T18:10:20.244Z,99946.55
2018-12-01T18:15:18.586Z,99933.94
2018-12-01T18:20:20.888Z,99933.22
2018-12-01T18:25:18.350Z,99930.61
2018-12-01T18:30:20.569Z,99928.59
2018-12-01T18:35:18.021Z,99915.68
2018-12-01T18:40:20.117Z,99901.15
2018-12-01T18:45:18.865Z,99896.28
2018-12-01T18:50:18.191Z,99892.75
2018-12-01T18:55:15.646Z,99873.18
2018-12-01T19:00:15.338Z,99854.81
2018-12-01T19:05:12.893Z,99838.66
2018-12-01T19:10:11.666Z,99834.83
2018-12-01T19:15:11.310Z,99824.12
2018-12-01T19:20:11.057Z,99801.64
2018-12-01T19:25:11.765Z,99779.40
2018-12-01T19:30:14.782Z,99771.64
2018-12-01T19:35:15.523Z,99766.80
2018-12-01T19:40:19.377Z,99766.11
2018-12-01T19:45:23.675Z,99767.70
2018-12-01T19:50:36.478Z,99764.84
2018-12-01T19:55:41.221Z,99742.08
2018-12-01T20:00:52.123Z,99744.81
2018-12-01T20:05:52.260Z,99731.47
2018-12-01T20:10:53.450Z,99720.64
2018-12-01T20:16:00.288Z,99711.64
2018-12-01T20:20:57.893Z,99708.81
2018-12-01T20:25:55.296Z,99710.70
2018-12-01T20:30:52.813Z,99703.56
2018-12-01T20:35:54.450Z,99696.30
2018-12-01T20:40:57.476Z,99693.84
2018-12-01T20:45:49.690Z,99685.05
2018-12-01T20:50:47.126Z,99681.18
2018-12-01T20:55:49.283Z,99670.59
2018-12-01T21:00:46.783Z,99659.18
2018-12-01T21:05:47.652Z,99651.41
2018-12-01T21:10:51.082Z,99654.19
2018-12-01T21:15:49.163Z,99652.25
2018-12-01T21:20:46.693Z,99641.48
2018-12-01T21:25:44.254Z,99630.63
2018-12-01T21:30:42.214Z,99626.34
2018-12-01T21:35:39.851Z,99622.41
2018-12-01T21:40:37.410Z,99620.15
2018-12-01T21:45:34.841Z,99619.33
2018-12-01T21:50:32.286Z,99611.70
2018-12-01T21:55:31.902Z,99609.10
2018-12-01T22:00:30.454Z,99593.36
2018-12-01T22:05:34.503Z,99592.44
2018-12-01T22:10:31.984Z,99589.00
2018-12-01T22:15:29.413Z,99577.98
2018-12-01T22:20:27.092Z,99569.20
2018-12-01T22:25:24.605Z,99567.19
2018-12-01T22:30:25.179Z,99562.76
2018-12-01T22:35:23.784Z,99562.27
2018-12-01T22:40:22.781Z,99559.01
2018-12-01T22:45:20.281Z,99566.69
2018-12-01T22:50:18.923Z,99564.47
2018-12-01T22:55:18.657Z,99559.47
2018-12-01T23:00:18.962Z,99553.09
2018-12-01T23:05:17.054Z,99554.03
2018-12-01T23:10:15.957Z,99538.46
2018-12-01T23:15:15.361Z,99533.12
2018-12-01T23:20:22.906Z,99529.06
2018-12-01T23:25:22.496Z,99519.44
2018-12-01T23:30:30.205Z,99515.84
2018-12-01T23:35:28.629Z,99514.15
2018-12-01T23:40:26.042Z,99509.72
2018-12-01T23:45:23.645Z,99484.36
2018-12-01T23:50:23.011Z,99483.59
2018-12-01T23:55:20.453Z,99475.03
